EGHI Airport Information

Runway Information
Runway 02 Length 5653 ft width 121 ft
Elevation 31 ft Threshold 240 ft Heading 19
Runway 20 Length 5653 ft Width 121 ft
Elevation 44 ft Threshold 145 ft Heading 199
Airport Frequencies
Type APP Name APP Frequency 128.85 MHZ
Type ATIS Name ATIS Frequency 113.35 MHZ
Type GND Name GND Frequency 121.775 MHZ
Type OPS Name OPS Frequency 130.65 MHZ
Type TWR Name TWR Frequency 118.2 MHZ
Airport Navaids
Type NDB Name Southampton Frequency 392 KHZ
Type VOR-DME Name Southampton Frequency 113350 KHZ
Airport Weather Information & NOTAM
ADDS - METARS form results

(1802 UTC 17 October 2018)
Data provider http://aviationweather.gov/metar/data/
 
METAR text: EGHI 171750Z 05001KT 9999 VCSH FEW014 BKN022 12/11 Q1021
Conditions at: EGHI (SOUTHAMPTON WX C, GB) observed 1750 UTC 17 October 2018
Temperature: 12.0°C (54°F)
Dewpoint: 11.0°C (52°F) [RH = 94%]
Pressure (altimeter): 30.15 inches Hg (1021.0 mb)
Winds: from the NE (50 degrees) at 1 MPH (1 knots; 0.5 m/s)
Visibility: 6 or more miles (10+ km)
Ceiling: 2200 feet AGL
Clouds: few clouds at 1400 feet AGL
broken clouds at 2200 feet AGL
Weather: VCSH  (showers in vicinity)

METAR text: EGHI 171720Z 04001KT 9999 VCSH FEW014 BKN020 13/12 Q1021
Conditions at: EGHI (SOUTHAMPTON WX C, GB) observed 1720 UTC 17 October 2018
Temperature: 13.0°C (55°F)
Dewpoint: 12.0°C (54°F) [RH = 94%]
Pressure (altimeter): 30.15 inches Hg (1021.0 mb)
Winds: from the NE (40 degrees) at 1 MPH (1 knots; 0.5 m/s)
Visibility: 6 or more miles (10+ km)
Ceiling: 2000 feet AGL
Clouds: few clouds at 1400 feet AGL
broken clouds at 2000 feet AGL
Weather: VCSH  (showers in vicinity)

Forecast for: EGHI (SOUTHAMPTON WX C, GB)
Text: TAF EGHI 171653Z 1718/1722 VRB04KT 9999 SCT008 BKN020
Forecast period: 1800 to 2200 UTC 17 October 2018
Forecast type: FROM: standard forecast or significant change
Winds: variable direction winds at 5 MPH (4 knots; 2.1 m/s)
Visibility: 6 or more miles 10+ km)
Ceiling: 2000 feet AGL
Clouds: scattered clouds at 800 feet AGL
broken clouds at 2000 feet AGL
Weather: no significant weather forecast for this period
Text: TEMPO 1718/1722 9000 -RA BKN007
Forecast period: 1800 to 2200 UTC 17 October 2018
Forecast type: TEMPORARY: The following changes expected for less than half the time period
Visibility: 6 miles (9 km)
Ceiling: 700 feet AGL
Clouds: broken clouds at 700 feet AGL
Weather: -RA  (light rain)